Walbrook, Maryland
Current Conditions -  °F | °C
As of 4:54 PM on Tuesday 21 Oct 2014 (Local Time) from KBWI Reporting Station
Broken Clouds Broken Clouds  
Wind Chill: 65°   Ceiling: 12000
Heat Index: 65°   Visibility: 10mi
Dew Point: 49°   Wind: 6mph
Humidity: 56%   Direction: 130°SE
Pressure: 29.8"   Gusts: NA
Location:  39.311°N, 76.6719°W
Report Text: KBWI 212054Z 13005KT 10SM SCT055 BKN120 BKN250 18/09 A2980 RMK AO2 SLP091 T01830094 55003
Loading
Personal Weather Stations






























Interactive Weather Map
Tropical Storm Tracking
New forecast layout! Learn more

10-Day Weather Forecast

Advertisements
Track Severe Weather on mobile